Time;durP1;ratioP1;P1;durP2;ratioP2;P2;SDS_P1;SDS_P2;PMS_P1;PMS_P2;Temp;Humidity;BMP_temperature;BMP_pressure;BME280_temperature;BME280_humidity;BME280_pressure;Samples;Min_cycle;Max_cycle;Signal;HPM_P1;HPM_P2
2022/05/11 00:01:14;;;;;;;4.88;1.27;;;19.10;74.30;;;;;;5035964;28;20029;-76
2022/05/11 00:03:40;;;;;;;4.30;1.27;;;19.10;74.30;;;;;;5035337;28;20022;-75
2022/05/11 00:06:06;;;;;;;6.38;1.35;;;19.10;74.40;;;;;;5035334;28;20112;-76
2022/05/11 00:08:32;;;;;;;3.33;1.40;;;19.10;75.00;;;;;;5035465;28;20025;-76
2022/05/11 00:10:58;;;;;;;2.95;1.13;;;19.10;74.20;;;;;;5035721;28;20087;-76
2022/05/11 00:13:23;;;;;;;2.03;1.00;;;19.20;74.10;;;;;;5035705;28;20022;-76
2022/05/11 00:15:49;;;;;;;3.28;1.27;;;19.20;73.90;;;;;;5035545;28;20432;-76
2022/05/11 00:18:15;;;;;;;4.60;1.35;;;19.20;73.80;;;;;;5035323;28;20056;-76
2022/05/11 00:20:40;;;;;;;2.88;1.20;;;19.30;73.80;;;;;;5035599;28;20053;-76
2022/05/11 00:23:06;;;;;;;3.42;0.90;;;19.30;73.70;;;;;;5035386;28;20018;-76
2022/05/11 00:25:32;;;;;;;2.03;0.70;;;19.30;73.60;;;;;;5035364;28;20025;-76
2022/05/11 00:27:58;;;;;;;4.47;1.02;;;19.30;73.70;;;;;;5035366;28;20026;-76
2022/05/11 00:30:26;;;;;;;4.80;0.90;;;19.40;73.70;;;;;;5035074;28;20021;-75
2022/05/11 00:32:53;;;;;;;3.03;0.70;;;19.40;73.50;;;;;;5035044;28;20034;-76
2022/05/11 00:35:19;;;;;;;2.58;0.77;;;19.40;73.30;;;;;;5034980;28;20034;-74
2022/05/11 00:37:44;;;;;;;3.90;1.00;;;19.40;73.20;;;;;;5034671;28;20029;-75
2022/05/11 00:40:11;;;;;;;2.78;0.90;;;19.40;73.40;;;;;;5034666;28;20026;-75
2022/05/11 00:42:37;;;;;;;4.97;0.80;;;19.40;73.30;;;;;;5035080;28;20384;-75
2022/05/11 00:45:05;;;;;;;1.75;0.57;;;19.40;73.30;;;;;;5034753;28;20029;-75
2022/05/11 00:47:43;;;;;;;3.13;0.60;;;19.40;73.30;;;;;;5034476;28;20050;-75
2022/05/11 00:50:26;;;;;;;1.85;0.60;;;19.40;73.30;;;;;;5035056;28;20033;-75
2022/05/11 00:52:57;;;;;;;4.28;1.17;;;19.50;73.30;;;;;;5034839;28;20029;-76
2022/05/11 00:55:28;;;;;;;2.33;0.73;;;19.50;73.50;;;;;;5034318;28;20037;-76
2022/05/11 00:58:19;;;;;;;2.17;0.60;;;19.50;73.70;;;;;;5034480;28;20041;-76
2022/05/11 01:00:46;;;;;;;3.25;1.02;;;19.50;73.80;;;;;;5034736;28;20021;-76
2022/05/11 01:03:16;;;;;;;2.58;0.88;;;19.50;73.90;;;;;;5034809;28;20033;-76
2022/05/11 01:05:43;;;;;;;3.58;1.17;;;19.40;73.90;;;;;;5034608;28;20077;-75
2022/05/11 01:08:09;;;;;;;3.85;1.05;;;19.50;73.90;;;;;;5034207;28;20025;-76
2022/05/11 01:10:35;;;;;;;2.65;0.90;;;19.50;74.00;;;;;;5034267;28;20036;-75
2022/05/11 01:13:05;;;;;;;2.85;0.98;;;19.50;74.00;;;;;;5034641;28;20017;-76
2022/05/11 01:15:32;;;;;;;2.75;0.70;;;19.50;74.20;;;;;;5034307;28;20049;-76
2022/05/11 01:17:59;;;;;;;2.45;1.00;;;19.50;74.00;;;;;;5034398;28;20029;-76
2022/05/11 01:20:27;;;;;;;2.28;1.00;;;19.50;74.00;;;;;;5034204;28;20052;-76
2022/05/11 01:23:04;;;;;;;2.88;0.80;;;19.50;73.90;;;;;;5033874;28;20358;-76
2022/05/11 01:25:30;;;;;;;4.93;1.15;;;19.60;73.70;;;;;;5034065;28;20124;-76
2022/05/11 01:28:04;;;;;;;1.92;0.90;;;19.60;73.60;;;;;;5034063;28;20033;-76
2022/05/11 01:30:31;;;;;;;1.52;1.05;;;19.50;73.40;;;;;;5034079;28;20032;-76
2022/05/11 01:32:56;;;;;;;3.60;1.27;;;19.50;73.20;;;;;;5033878;28;20021;-76
2022/05/11 01:35:47;;;;;;;2.85;0.98;;;19.50;73.20;;;;;;5034090;28;20496;-76
2022/05/11 01:38:27;;;;;;;5.22;1.08;;;19.50;73.10;;;;;;5034085;28;20433;-76
2022/05/11 01:40:53;;;;;;;2.95;1.10;;;19.50;73.10;;;;;;5033947;28;20029;-76
2022/05/11 01:43:22;;;;;;;3.72;1.58;;;19.50;73.00;;;;;;5034139;28;20021;-76
2022/05/11 01:45:48;;;;;;;1.70;1.08;;;19.50;73.10;;;;;;5033753;28;20021;-75
2022/05/11 01:48:14;;;;;;;3.47;1.40;;;19.50;73.10;;;;;;5033972;28;20067;-76
2022/05/11 01:50:40;;;;;;;3.50;1.70;;;19.50;73.00;;;;;;5033594;28;20397;-75
2022/05/11 01:53:06;;;;;;;7.05;1.50;;;19.50;72.90;;;;;;5033524;28;20048;-76
2022/05/11 01:55:33;;;;;;;3.88;1.90;;;19.50;72.80;;;;;;5033820;28;20451;-76
2022/05/11 01:57:59;;;;;;;5.55;2.30;;;19.50;72.60;;;;;;5033527;28;20017;-76
2022/05/11 02:00:26;;;;;;;3.65;1.90;;;19.30;72.60;;;;;;5033488;28;20110;-75
2022/05/11 02:02:52;;;;;;;7.63;2.40;;;19.30;72.90;;;;;;5033237;28;20029;-76
2022/05/11 02:08:03;;;;;;;5.68;1.90;;;19.20;73.10;;;;;;5033485;28;20074;-76
2022/05/11 02:10:28;;;;;;;6.38;2.10;;;19.10;72.80;;;;;;5033502;28;20026;-76
2022/05/11 02:12:57;;;;;;;5.22;2.45;;;19.10;72.90;;;;;;5033307;28;20091;-76
2022/05/11 02:15:24;;;;;;;4.05;2.08;;;19.10;72.90;;;;;;5033435;28;20481;-76
2022/05/11 02:17:49;;;;;;;5.57;2.03;;;19.00;72.70;;;;;;5033258;28;20029;-76
2022/05/11 02:20:17;;;;;;;3.45;2.10;;;18.90;72.70;;;;;;5033252;28;20028;-76
2022/05/11 02:22:44;;;;;;;6.30;2.50;;;18.90;73.10;;;;;;5033296;28;20151;-76
2022/05/11 02:25:11;;;;;;;3.72;1.88;;;18.90;72.80;;;;;;5033010;28;20527;-76
2022/05/11 02:27:37;;;;;;;3.40;1.77;;;18.70;72.60;;;;;;5033101;28;20033;-75
2022/05/11 02:30:05;;;;;;;3.47;1.73;;;18.70;72.60;;;;;;5033396;28;20037;-75
2022/05/11 02:32:30;;;;;;;6.40;2.05;;;18.70;72.80;;;;;;5033120;28;20025;-76
2022/05/11 02:35:14;;;;;;;4.85;1.90;;;18.70;72.90;;;;;;5033044;28;20367;-76
2022/05/11 02:37:43;;;;;;;6.07;2.10;;;18.70;72.90;;;;;;5032937;28;20025;-75
2022/05/11 02:40:10;;;;;;;3.45;1.95;;;18.70;72.70;;;;;;5033276;28;20064;-75
2022/05/11 02:42:35;;;;;;;3.60;1.65;;;18.70;72.60;;;;;;5032979;28;20465;-75
2022/05/11 02:45:02;;;;;;;2.80;1.85;;;18.70;72.50;;;;;;5033253;28;20040;-75
2022/05/11 02:47:27;;;;;;;5.05;2.08;;;18.70;72.60;;;;;;5032631;28;20049;-75
2022/05/11 02:49:53;;;;;;;5.75;1.83;;;18.70;73.00;;;;;;5033265;28;20439;-75
2022/05/11 02:52:18;;;;;;;2.63;1.58;;;18.70;72.90;;;;;;5032999;28;20109;-75
2022/05/11 02:54:46;;;;;;;2.83;2.00;;;18.70;73.00;;;;;;5032803;28;20033;-75
2022/05/11 02:57:13;;;;;;;3.80;1.85;;;18.70;72.90;;;;;;5033130;28;20033;-75
2022/05/11 02:59:38;;;;;;;4.57;2.15;;;18.70;73.00;;;;;;5032618;28;20461;-75
2022/05/11 03:02:04;;;;;;;4.63;1.80;;;18.70;73.10;;;;;;5034654;28;20026;-75
2022/05/11 03:04:29;;;;;;;4.93;2.08;;;18.70;73.10;;;;;;5037007;28;20104;-75
2022/05/11 03:06:55;;;;;;;4.45;2.47;;;18.70;73.10;;;;;;5036798;28;20025;-75
2022/05/11 03:09:21;;;;;;;5.55;2.10;;;18.70;73.10;;;;;;5036912;28;20032;-76
2022/05/11 03:11:46;;;;;;;5.63;1.77;;;18.70;73.00;;;;;;5036609;28;20447;-76
2022/05/11 03:14:12;;;;;;;3.47;2.05;;;18.60;73.10;;;;;;5036633;28;20025;-76
2022/05/11 03:16:39;;;;;;;3.45;2.15;;;18.60;73.10;;;;;;5036525;28;20438;-76
2022/05/11 03:19:05;;;;;;;4.28;2.38;;;18.60;73.10;;;;;;5036342;28;20079;-76
2022/05/11 03:21:31;;;;;;;5.30;2.20;;;18.60;73.30;;;;;;5036730;28;20029;-76
2022/05/11 03:23:57;;;;;;;4.18;2.20;;;18.60;73.40;;;;;;5036323;28;20466;-75
2022/05/11 03:26:23;;;;;;;5.05;2.10;;;18.60;73.60;;;;;;5036524;28;20025;-75
2022/05/11 03:28:49;;;;;;;3.78;1.58;;;18.60;73.70;;;;;;5036334;28;20076;-76
2022/05/11 03:31:15;;;;;;;3.42;1.98;;;18.70;74.00;;;;;;5036301;28;20025;-76
2022/05/11 03:36:25;;;;;;;4.32;2.08;;;18.70;74.50;;;;;;5036076;28;20099;-75
2022/05/11 03:38:51;;;;;;;3.60;2.10;;;18.70;74.50;;;;;;5036454;28;20033;-75
2022/05/11 03:41:17;;;;;;;4.65;2.30;;;18.70;74.50;;;;;;5036344;28;20460;-75
2022/05/11 03:43:43;;;;;;;4.10;2.85;;;18.80;74.70;;;;;;5036367;28;20029;-75
2022/05/11 03:46:09;;;;;;;6.65;2.95;;;18.80;75.00;;;;;;5035768;28;20053;-75
2022/05/11 03:48:37;;;;;;;7.57;3.20;;;18.80;75.10;;;;;;5036028;28;20526;-75
2022/05/11 03:51:03;;;;;;;7.13;3.15;;;18.70;75.30;;;;;;5036120;28;20053;-75
2022/05/11 03:53:30;;;;;;;6.72;3.65;;;18.70;75.50;;;;;;5035890;28;20033;-75
2022/05/11 03:55:56;;;;;;;4.72;3.10;;;18.60;75.50;;;;;;5036021;28;20071;-75
2022/05/11 03:58:21;;;;;;;5.63;3.00;;;18.50;75.50;;;;;;5035968;28;20030;-75
2022/05/11 04:00:47;;;;;;;6.30;3.05;;;18.40;75.60;;;;;;5035869;28;20022;-75
2022/05/11 04:03:12;;;;;;;5.28;3.33;;;18.40;75.70;;;;;;5035498;28;20033;-76
2022/05/11 04:05:38;;;;;;;5.72;2.53;;;18.40;75.70;;;;;;5035825;28;20061;-76
2022/05/11 04:08:04;;;;;;;4.03;2.80;;;18.30;75.60;;;;;;5035792;28;20461;-74
2022/05/11 04:10:29;;;;;;;5.10;2.85;;;18.30;75.60;;;;;;5035895;28;20026;-74
2022/05/11 04:12:55;;;;;;;5.88;3.20;;;18.30;75.80;;;;;;5034382;28;20013;-75
2022/05/11 04:15:21;;;;;;;4.32;2.72;;;18.30;75.90;;;;;;5035436;28;20496;-75
2022/05/11 04:17:47;;;;;;;3.65;2.90;;;18.20;75.90;;;;;;5035660;28;20404;-75
2022/05/11 04:20:15;;;;;;;4.18;2.78;;;18.20;75.90;;;;;;5035141;28;20483;-75
2022/05/11 04:22:40;;;;;;;5.97;2.97;;;18.30;75.90;;;;;;5035495;28;20109;-75
2022/05/11 04:25:07;;;;;;;6.28;2.55;;;18.30;75.90;;;;;;5035036;28;20057;-75
2022/05/11 04:27:33;;;;;;;4.05;3.25;;;18.30;76.10;;;;;;5035493;28;20057;-75
2022/05/11 04:30:00;;;;;;;6.38;3.13;;;18.30;76.30;;;;;;5035141;28;20469;-75
2022/05/11 04:32:26;;;;;;;5.68;2.67;;;18.30;76.40;;;;;;5035074;28;20108;-75
2022/05/11 04:34:51;;;;;;;7.70;3.10;;;18.20;76.50;;;;;;5035324;28;20095;-75
2022/05/11 04:37:17;;;;;;;3.90;2.70;;;18.20;76.40;;;;;;5035292;28;20025;-76
2022/05/11 04:39:43;;;;;;;4.68;2.55;;;18.20;76.40;;;;;;5035096;28;20104;-76
2022/05/11 04:42:11;;;;;;;3.83;2.53;;;18.10;76.20;;;;;;5034875;28;20108;-75
2022/05/11 04:44:36;;;;;;;3.53;2.47;;;18.10;76.20;;;;;;5035046;28;20022;-76
2022/05/11 04:47:09;;;;;;;5.63;2.60;;;18.10;76.40;;;;;;5034638;28;20045;-75
2022/05/11 04:49:35;;;;;;;4.85;2.30;;;18.10;76.50;;;;;;5034669;28;20029;-75
2022/05/11 04:52:08;;;;;;;3.60;2.25;;;18.10;76.70;;;;;;5034691;28;20116;-75
2022/05/11 04:54:38;;;;;;;6.65;2.28;;;18.10;76.50;;;;;;5034746;28;20029;-75
2022/05/11 04:57:05;;;;;;;4.80;2.30;;;18.10;76.60;;;;;;5034441;28;20393;-75
2022/05/11 04:59:32;;;;;;;6.07;2.20;;;18.20;76.80;;;;;;5034346;28;20377;-75
2022/05/11 05:01:59;;;;;;;4.82;2.50;;;18.10;76.70;;;;;;5034531;28;20026;-75
2022/05/11 05:04:26;;;;;;;4.22;2.60;;;18.10;76.50;;;;;;5034604;28;20025;-75
2022/05/11 05:06:51;;;;;;;3.40;2.20;;;18.10;76.30;;;;;;5034291;28;20029;-75
2022/05/11 05:09:17;;;;;;;4.15;2.08;;;18.10;76.10;;;;;;5034347;28;20087;-75
2022/05/11 05:11:42;;;;;;;5.43;2.60;;;18.10;76.30;;;;;;5034549;28;20123;-75
2022/05/11 05:14:08;;;;;;;2.80;2.20;;;18.00;76.70;;;;;;5034127;28;20079;-76
2022/05/11 05:16:34;;;;;;;6.80;2.80;;;18.10;77.00;;;;;;5034542;28;20025;-74
2022/05/11 05:19:01;;;;;;;3.97;2.10;;;18.10;77.30;;;;;;5034079;28;20030;-74
2022/05/11 05:21:27;;;;;;;4.68;2.80;;;18.10;77.50;;;;;;5034322;28;20025;-75
2022/05/11 05:23:52;;;;;;;5.68;2.55;;;18.10;77.10;;;;;;5033992;28;20423;-75
2022/05/11 05:26:18;;;;;;;5.85;2.25;;;18.10;77.10;;;;;;5034236;28;20022;-75
2022/05/11 05:31:30;;;;;;;6.07;2.42;;;18.10;77.10;;;;;;5033774;28;20049;-74
2022/05/11 05:33:59;;;;;;;4.88;2.15;;;18.10;77.30;;;;;;5034077;28;20021;-75
2022/05/11 05:36:29;;;;;;;4.00;1.83;;;18.10;77.40;;;;;;5033657;28;20091;-75
2022/05/11 05:38:58;;;;;;;4.78;2.17;;;18.00;77.20;;;;;;5033753;28;20409;-75
2022/05/11 05:41:27;;;;;;;5.32;2.13;;;18.00;77.10;;;;;;5033868;28;20036;-75
2022/05/11 05:43:53;;;;;;;7.78;2.35;;;18.00;77.10;;;;;;5033929;28;20104;-75
2022/05/11 05:46:20;;;;;;;2.80;1.90;;;18.00;77.20;;;;;;5033457;28;20056;-75
2022/05/11 05:48:46;;;;;;;5.22;2.05;;;17.90;77.00;;;;;;5033914;28;20072;-75
2022/05/11 05:51:14;;;;;;;6.15;2.45;;;17.90;77.10;;;;;;5033752;28;20025;-75
2022/05/11 05:53:40;;;;;;;4.97;2.15;;;18.00;77.00;;;;;;5033370;28;20030;-75
2022/05/11 05:56:06;;;;;;;2.45;1.50;;;18.00;76.80;;;;;;5033039;28;20061;-75
2022/05/11 05:58:32;;;;;;;4.22;1.80;;;18.00;75.90;;;;;;5033490;28;20035;-76
2022/05/11 06:00:58;;;;;;;5.40;2.00;;;18.00;75.60;;;;;;5033449;28;20101;-76
2022/05/11 06:03:27;;;;;;;4.65;1.58;;;18.00;75.20;;;;;;5033537;28;20017;-75
2022/05/11 06:05:52;;;;;;;4.80;1.50;;;18.00;74.50;;;;;;5033060;28;20031;-75
2022/05/11 06:08:18;;;;;;;5.35;1.52;;;18.00;74.10;;;;;;5033374;28;20026;-75
2022/05/11 06:10:44;;;;;;;4.68;1.67;;;18.00;74.00;;;;;;5033307;28;20549;-76
2022/05/11 06:13:13;;;;;;;5.45;1.70;;;18.00;74.10;;;;;;5033064;28;20476;-76
2022/05/11 06:15:39;;;;;;;7.65;1.40;;;18.00;74.30;;;;;;5033223;28;20111;-75
2022/05/11 06:18:08;;;;;;;5.10;1.30;;;18.00;74.10;;;;;;5033108;28;20049;-75
2022/05/11 06:20:35;;;;;;;3.22;1.42;;;18.10;73.90;;;;;;5032726;28;20037;-76
2022/05/11 06:23:04;;;;;;;3.65;1.38;;;18.20;73.60;;;;;;5033029;28;20132;-75
2022/05/11 06:25:31;;;;;;;2.90;1.25;;;18.20;73.50;;;;;;5033324;28;20029;-75
2022/05/11 06:27:58;;;;;;;7.15;1.20;;;18.30;73.30;;;;;;5032943;28;20030;-75
2022/05/11 06:30:25;;;;;;;4.10;1.27;;;18.40;72.50;;;;;;5032918;28;20057;-76
2022/05/11 06:32:54;;;;;;;4.30;1.02;;;18.50;71.80;;;;;;5032914;28;20432;-75
2022/05/11 06:35:20;;;;;;;3.35;0.88;;;18.50;71.20;;;;;;5033288;28;20037;-76
2022/05/11 06:37:46;;;;;;;6.60;1.15;;;18.50;69.10;;;;;;5035987;28;20061;-75
2022/05/11 06:40:14;;;;;;;7.57;1.05;;;18.40;69.60;;;;;;5037296;28;20057;-76
2022/05/11 06:42:41;;;;;;;4.53;1.08;;;18.40;69.80;;;;;;5037383;28;20022;-76
2022/05/11 06:45:08;;;;;;;3.85;0.88;;;18.40;68.70;;;;;;5037000;28;20032;-75
2022/05/11 06:47:34;;;;;;;6.32;1.00;;;18.50;68.30;;;;;;5036603;28;20053;-76
2022/05/11 06:50:00;;;;;;;4.68;1.38;;;18.50;68.10;;;;;;5036820;28;20018;-76
2022/05/11 06:52:26;;;;;;;4.65;1.00;;;18.50;67.90;;;;;;5036992;28;20029;-75
2022/05/11 07:00:23;;;;;;;6.95;1.00;;;18.60;65.60;;;;;;5036627;28;20389;-75
2022/05/11 07:02:48;;;;;;;3.55;1.20;;;18.60;65.50;;;;;;5036609;28;20022;-75
2022/05/11 07:05:14;;;;;;;4.15;0.80;;;18.70;65.90;;;;;;5036890;28;20036;-75
2022/05/11 07:07:40;;;;;;;4.60;0.70;;;18.70;65.30;;;;;;5036780;28;20061;-75
2022/05/11 07:10:07;;;;;;;11.80;1.42;;;18.70;64.30;;;;;;5036669;28;20060;-75
2022/05/11 07:12:37;;;;;;;3.53;1.00;;;18.60;64.50;;;;;;5036451;28;20396;-75
2022/05/11 07:15:05;;;;;;;6.22;1.13;;;18.70;63.40;;;;;;5036282;28;20037;-76
2022/05/11 07:17:40;;;;;;;5.30;0.70;;;18.70;63.00;;;;;;5036332;28;20185;-75
2022/05/11 07:20:18;;;;;;;6.85;1.13;;;18.80;64.20;;;;;;5036677;28;20079;-75
2022/05/11 07:22:44;;;;;;;4.07;1.10;;;18.90;63.50;;;;;;5036230;28;20036;-76
2022/05/11 07:25:12;;;;;;;7.95;1.30;;;19.00;63.40;;;;;;5036089;28;20025;-76
2022/05/11 07:27:39;;;;;;;2.53;0.50;;;19.10;63.80;;;;;;5036316;28;20112;-75
2022/05/11 07:30:07;;;;;;;4.05;0.70;;;19.00;62.60;;;;;;5036331;28;20029;-76
2022/05/11 07:32:33;;;;;;;3.85;0.88;;;18.90;61.70;;;;;;5035929;28;20029;-75
2022/05/11 07:34:58;;;;;;;4.57;0.57;;;18.80;61.70;;;;;;5035861;28;20424;-75
2022/05/11 07:37:24;;;;;;;2.88;0.30;;;18.80;61.80;;;;;;5036100;28;20479;-75
2022/05/11 07:39:51;;;;;;;7.28;0.40;;;18.70;61.50;;;;;;5035838;28;20029;-75
2022/05/11 07:42:16;;;;;;;3.10;0.40;;;18.70;61.10;;;;;;5036168;28;20033;-76
2022/05/11 07:44:42;;;;;;;7.25;0.80;;;18.70;61.90;;;;;;5036029;28;20033;-76
2022/05/11 07:47:10;;;;;;;4.53;0.65;;;18.70;61.10;;;;;;5035498;28;20053;-76
2022/05/11 07:49:37;;;;;;;3.25;0.43;;;18.60;60.90;;;;;;5035697;28;20025;-75
2022/05/11 07:52:03;;;;;;;5.07;0.68;;;18.60;61.50;;;;;;5035915;28;20025;-75
2022/05/11 07:54:30;;;;;;;7.18;1.08;;;18.70;61.10;;;;;;5035479;28;20033;-75
2022/05/11 07:59:56;;;;;;;6.43;0.55;;;18.60;61.70;;;;;;5035904;28;20097;-76
2022/05/11 08:02:30;;;;;;;5.05;0.75;;;18.50;61.70;;;;;;5035561;28;20109;-75
2022/05/11 08:04:59;;;;;;;3.55;0.43;;;18.50;61.40;;;;;;5035806;28;20113;-76
2022/05/11 08:07:34;;;;;;;5.38;0.50;;;18.50;61.70;;;;;;5035667;28;20025;-76
2022/05/11 08:10:00;;;;;;;7.75;0.47;;;18.60;62.30;;;;;;5035603;28;20380;-76
2022/05/11 08:12:27;;;;;;;6.63;1.27;;;18.60;62.00;;;;;;5035344;28;20540;-75
2022/05/11 08:14:53;;;;;;;6.20;0.40;;;18.80;61.70;;;;;;5035402;28;20040;-76
2022/05/11 08:17:25;;;;;;;5.10;0.50;;;18.90;61.30;;;;;;5035739;28;20040;-75
2022/05/11 08:19:50;;;;;;;6.20;0.82;;;19.10;60.90;;;;;;5035274;28;20025;-76
2022/05/11 08:22:16;;;;;;;3.78;0.43;;;19.30;60.00;;;;;;5035235;28;20047;-75
2022/05/11 08:24:41;;;;;;;5.43;0.70;;;19.40;59.70;;;;;;5035202;28;20064;-76
2022/05/11 08:27:09;;;;;;;4.45;0.50;;;19.30;59.80;;;;;;5035365;28;20021;-75
2022/05/11 08:35:03;;;;;;;4.38;0.43;;;19.40;60.70;;;;;;5035283;28;20156;-76
2022/05/11 08:37:29;;;;;;;3.08;0.52;;;19.60;60.30;;;;;;5034755;28;20124;-75
2022/05/11 08:39:56;;;;;;;4.57;0.65;;;19.70;59.40;;;;;;5035061;28;20026;-76
2022/05/11 08:42:22;;;;;;;6.35;0.50;;;19.80;59.80;;;;;;5034963;28;20040;-76
2022/05/11 08:44:49;;;;;;;2.78;0.40;;;19.90;59.40;;;;;;5034778;28;20026;-76
2022/05/11 08:47:44;;;;;;;3.17;0.40;;;20.00;60.40;;;;;;5034473;28;20420;-76
2022/05/11 08:50:16;;;;;;;5.90;0.50;;;20.10;59.60;;;;;;5034511;28;20099;-76
2022/05/11 08:52:58;;;;;;;3.33;0.30;;;20.20;59.00;;;;;;5034945;28;20026;-75
2022/05/11 08:55:32;;;;;;;5.67;0.70;;;20.20;59.40;;;;;;5034430;28;20115;-76
2022/05/11 08:58:23;;;;;;;3.67;0.70;;;20.30;59.70;;;;;;5034872;28;20104;-76
2022/05/11 09:00:53;;;;;;;3.53;0.50;;;20.40;60.40;;;;;;5026370;28;20045;-74
2022/05/11 09:03:38;;;;;;;7.97;0.90;;;20.50;59.20;;;;;;5034662;28;20163;-74
2022/05/11 09:06:06;;;;;;;5.43;0.47;;;20.50;59.20;;;;;;5034110;28;20032;-75
2022/05/11 09:08:36;;;;;;;4.90;1.10;;;20.60;60.30;;;;;;5034143;28;20033;-75
2022/05/11 09:11:03;;;;;;;8.23;0.60;;;20.60;59.50;;;;;;5034180;28;20061;-74
2022/05/11 09:13:29;;;;;;;4.90;0.52;;;20.60;59.00;;;;;;5034431;28;20025;-74
2022/05/11 09:16:02;;;;;;;7.45;0.50;;;20.70;59.40;;;;;;5034059;28;20041;-74
2022/05/11 09:18:31;;;;;;;4.13;0.90;;;20.80;60.00;;;;;;5034373;28;20443;-75
2022/05/11 09:20:58;;;;;;;6.07;1.50;;;21.00;59.60;;;;;;5034306;28;20032;-76
2022/05/11 09:23:36;;;;;;;6.45;1.05;;;21.10;60.10;;;;;;5033777;28;20117;-76
2022/05/11 09:26:09;;;;;;;7.85;0.98;;;21.10;58.90;;;;;;5034337;28;20036;-76
2022/05/11 09:28:38;;;;;;;10.05;0.88;;;21.10;58.60;;;;;;5033401;28;20535;-76
2022/05/11 09:31:12;;;;;;;5.65;0.90;;;21.00;58.90;;;;;;5033445;28;20477;-76
2022/05/11 09:33:41;;;;;;;9.88;1.02;;;21.00;58.60;;;;;;5034019;28;20033;-75
2022/05/11 09:36:09;;;;;;;4.90;0.82;;;21.10;59.40;;;;;;5033700;28;20566;-75
2022/05/11 09:38:37;;;;;;;7.43;0.80;;;21.10;59.20;;;;;;5033605;28;20030;-76
2022/05/11 09:41:13;;;;;;;7.43;1.00;;;21.30;58.60;;;;;;5033803;28;20046;-75
2022/05/11 09:43:53;;;;;;;5.38;0.80;;;21.30;58.40;;;;;;5033861;28;20017;-75
2022/05/11 09:46:35;;;;;;;5.55;1.17;;;21.30;58.20;;;;;;5033795;28;20065;-75
2022/05/11 09:49:09;;;;;;;5.68;1.25;;;21.40;58.10;;;;;;5033576;28;20087;-75
2022/05/11 09:51:50;;;;;;;5.72;0.90;;;21.50;58.20;;;;;;5033714;28;20030;-76
2022/05/11 09:54:18;;;;;;;5.82;0.60;;;21.60;58.30;;;;;;5033689;28;20025;-76
2022/05/11 09:56:57;;;;;;;4.13;1.00;;;21.60;58.30;;;;;;5033545;28;20515;-76
2022/05/11 09:59:37;;;;;;;7.82;0.90;;;21.70;57.80;;;;;;5033531;28;20039;-76
2022/05/11 10:02:12;;;;;;;6.72;1.00;;;21.90;57.60;;;;;;5033542;28;20434;-76
2022/05/11 10:04:44;;;;;;;6.20;1.27;;;21.90;56.90;;;;;;5033647;28;20029;-76
2022/05/11 10:07:14;;;;;;;13.05;1.35;;;22.00;57.80;;;;;;5033236;28;20032;-76
2022/05/11 10:09:44;;;;;;;6.03;1.27;;;22.00;56.90;;;;;;5033291;28;20037;-76
2022/05/11 10:12:18;;;;;;;6.53;1.23;;;21.90;57.90;;;;;;5033110;28;20480;-74
2022/05/11 10:23:38;;;;;;;5.65;1.15;;;22.00;57.30;;;;;;5033137;28;20041;-75
2022/05/11 10:26:19;;;;;;;5.88;1.13;;;22.10;56.20;;;;;;5033084;28;20017;-75
2022/05/11 10:28:51;;;;;;;8.95;1.42;;;22.20;56.40;;;;;;5033024;28;20026;-74
2022/05/11 10:31:38;;;;;;;8.40;1.00;;;22.30;56.10;;;;;;5032814;28;20478;-75
2022/05/11 10:34:32;;;;;;;4.95;1.05;;;22.40;55.90;;;;;;5033161;28;20033;-75
2022/05/11 10:37:15;;;;;;;5.82;1.23;;;22.50;55.90;;;;;;5032742;28;20033;-76
2022/05/11 10:40:02;;;;;;;6.18;0.60;;;22.50;55.70;;;;;;5032681;28;20543;-75
2022/05/11 10:42:35;;;;;;;4.75;1.00;;;22.60;55.90;;;;;;5032701;28;20504;-75
2022/05/11 10:45:20;;;;;;;9.98;0.90;;;22.80;54.50;;;;;;5033024;28;20029;-76
2022/05/11 10:48:09;;;;;;;5.30;0.98;;;23.00;54.10;;;;;;5032618;28;20397;-76
2022/05/11 10:51:02;;;;;;;2.67;0.80;;;23.00;52.90;;;;;;5032721;28;20393;-75
2022/05/11 10:53:33;;;;;;;5.22;0.50;;;23.00;51.80;;;;;;5033153;28;20057;-76
2022/05/11 10:56:39;;;;;;;4.35;0.40;;;22.90;51.30;;;;;;5032565;28;20045;-76
2022/05/11 10:59:22;;;;;;;7.32;0.60;;;22.90;52.50;;;;;;5032854;28;20017;-76
2022/05/11 11:01:47;;;;;;;;;;;23.00;51.80;;;;;;5033085;28;20034;-75
2022/05/11 11:04:48;;;;;;;5.78;0.90;;;23.00;52.00;;;;;;5032930;28;19905;-75
2022/05/11 11:07:32;;;;;;;4.10;0.80;;;23.10;51.70;;;;;;5025367;28;20083;-75
2022/05/11 11:10:24;;;;;;;5.68;0.60;;;23.20;51.30;;;;;;5032429;28;20029;-75
2022/05/11 11:13:14;;;;;;;5.63;0.60;;;23.20;50.70;;;;;;5032807;28;20548;-75
2022/05/11 11:15:43;;;;;;;5.03;0.80;;;23.10;51.00;;;;;;5032740;28;20052;-75
2022/05/11 11:18:15;;;;;;;4.13;0.45;;;23.10;51.50;;;;;;5032831;28;20032;-76
2022/05/11 11:20:45;;;;;;;3.22;0.60;;;23.20;51.80;;;;;;5032865;28;20018;-75
2022/05/11 11:23:16;;;;;;;9.45;0.80;;;23.40;50.10;;;;;;5034303;28;20029;-75
2022/05/11 11:25:44;;;;;;;5.97;0.73;;;23.30;49.60;;;;;;5036491;28;20036;-76
2022/05/11 11:28:13;;;;;;;4.63;0.73;;;23.40;50.80;;;;;;5036279;28;20037;-75
2022/05/11 11:30:41;;;;;;;5.35;0.80;;;23.50;50.80;;;;;;5036028;28;20034;-75
2022/05/11 11:33:16;;;;;;;3.75;0.73;;;23.60;50.20;;;;;;5036399;28;20021;-75
2022/05/11 11:35:57;;;;;;;5.35;0.70;;;23.60;50.10;;;;;;5036099;28;20455;-75
2022/05/11 11:38:41;;;;;;;4.80;0.60;;;23.80;51.70;;;;;;5036479;28;20075;-75
2022/05/11 11:41:22;;;;;;;4.75;0.57;;;23.90;49.90;;;;;;5035824;28;20022;-75
2022/05/11 11:43:55;;;;;;;6.68;0.98;;;23.90;49.40;;;;;;5036329;28;20029;-75
2022/05/11 11:46:32;;;;;;;8.77;0.90;;;23.90;49.70;;;;;;5036130;28;20045;-75
2022/05/11 11:49:27;;;;;;;6.25;0.70;;;23.90;50.30;;;;;;5036094;28;20021;-75
2022/05/11 11:52:05;;;;;;;5.53;0.75;;;24.00;49.70;;;;;;5021163;28;20512;-75
2022/05/11 11:54:47;;;;;;;5.00;0.77;;;24.00;49.30;;;;;;5035344;28;20112;-75
2022/05/11 11:57:16;;;;;;;6.00;0.50;;;23.90;49.60;;;;;;5035417;28;20037;-75
2022/05/11 11:59:48;;;;;;;4.95;1.17;;;23.90;50.00;;;;;;5035656;28;20040;-75
2022/05/11 12:02:22;;;;;;;4.10;1.00;;;24.00;49.70;;;;;;5035244;28;20045;-76
2022/05/11 12:05:03;;;;;;;9.43;1.20;;;23.90;49.90;;;;;;5035316;28;20033;-76
2022/05/11 12:16:20;;;;;;;7.22;1.00;;;24.30;50.00;;;;;;5035480;28;20040;-76
2022/05/11 12:18:47;;;;;;;8.57;0.95;;;24.50;50.00;;;;;;5035337;28;20373;-76
2022/05/11 12:21:32;;;;;;;5.07;1.08;;;24.50;49.20;;;;;;5035058;28;20112;-76
2022/05/11 12:24:02;;;;;;;4.38;0.63;;;24.60;49.60;;;;;;5035462;28;20024;-76
2022/05/11 12:26:32;;;;;;;5.35;0.90;;;24.80;50.20;;;;;;5035395;28;20108;-76
2022/05/11 12:32:00;;;;;;;3.22;0.80;;;24.90;49.50;;;;;;5035482;28;20048;-76
2022/05/11 12:34:28;;;;;;;3.80;0.68;;;24.90;49.30;;;;;;5034024;28;20025;-76
2022/05/11 12:36:55;;;;;;;3.55;0.43;;;25.00;49.00;;;;;;5035037;28;20134;-76
2022/05/11 12:39:35;;;;;;;7.72;0.90;;;25.00;49.00;;;;;;5035298;28;20029;-76
2022/05/11 12:42:03;;;;;;;7.05;1.73;;;25.00;49.40;;;;;;5035265;28;20021;-76
2022/05/11 12:44:31;;;;;;;6.45;0.60;;;25.10;49.00;;;;;;5034815;28;20485;-76
2022/05/11 12:47:03;;;;;;;7.25;0.80;;;25.20;49.20;;;;;;5034699;28;20459;-76
2022/05/11 12:49:29;;;;;;;3.58;0.90;;;25.30;48.40;;;;;;5034809;28;20084;-76
2022/05/11 12:51:57;;;;;;;8.43;1.42;;;25.20;48.80;;;;;;5035127;28;20029;-76
2022/05/11 12:54:26;;;;;;;6.57;1.00;;;25.20;49.30;;;;;;5034786;28;20022;-76
2022/05/11 12:57:07;;;;;;;9.70;1.45;;;25.30;49.50;;;;;;5034652;28;20037;-76
2022/05/11 12:59:33;;;;;;;3.05;0.77;;;25.30;48.80;;;;;;5034747;28;20045;-76
2022/05/11 13:02:20;;;;;;;5.38;1.48;;;25.20;49.00;;;;;;5034540;28;20073;-76
2022/05/11 13:04:51;;;;;;;6.28;1.35;;;25.30;50.50;;;;;;5034368;28;20025;-76
2022/05/11 13:07:18;;;;;;;3.40;0.80;;;25.40;49.20;;;;;;5034620;28;20037;-76
2022/05/11 13:09:50;;;;;;;6.28;0.88;;;25.50;49.60;;;;;;5034577;28;20060;-76
2022/05/11 13:12:16;;;;;;;6.00;1.27;;;25.50;48.90;;;;;;5034386;28;20157;-76
2022/05/11 13:14:52;;;;;;;4.28;1.30;;;25.50;49.30;;;;;;5034139;28;20108;-76
2022/05/11 13:17:31;;;;;;;5.20;1.40;;;25.50;48.60;;;;;;5033950;28;20488;-76
2022/05/11 13:20:00;;;;;;;9.75;1.60;;;25.50;49.00;;;;;;5034029;28;20037;-76
2022/05/11 13:22:28;;;;;;;5.30;1.05;;;25.40;48.80;;;;;;5033952;28;20026;-76
2022/05/11 13:25:07;;;;;;;4.97;1.40;;;25.40;49.00;;;;;;5033773;28;20018;-76
2022/05/11 13:27:40;;;;;;;6.45;1.73;;;25.50;49.10;;;;;;5033424;28;20017;-76
2022/05/11 13:30:28;;;;;;;4.93;1.35;;;25.40;48.50;;;;;;5033833;28;20021;-76
2022/05/11 13:32:56;;;;;;;5.03;1.40;;;25.40;49.20;;;;;;5034099;28;20022;-76
2022/05/11 13:35:25;;;;;;;6.07;1.63;;;25.50;48.80;;;;;;5033754;28;20044;-77
2022/05/11 13:38:09;;;;;;;10.27;1.63;;;25.50;49.10;;;;;;5033520;28;20025;-76
2022/05/11 13:40:53;;;;;;;7.07;1.67;;;25.40;48.70;;;;;;5033645;28;20116;-76
2022/05/11 13:43:23;;;;;;;4.38;1.05;;;25.40;48.70;;;;;;5034242;28;20106;-76
2022/05/11 13:45:53;;;;;;;8.52;1.85;;;25.20;49.00;;;;;;5033417;28;20022;-75